sensor_id;sensor_type;location;lat;lon;timestamp;P1;durP1;ratioP1;P2;durP2;ratioP2
52396;SDS011;38322;53.108;6.308;2022-08-01T05:03:13;11.95;;;2.70;;
52396;SDS011;38322;53.108;6.308;2022-08-01T05:05:39;17.70;;;3.85;;
52396;SDS011;38322;53.108;6.308;2022-08-01T05:08:05;16.00;;;4.03;;
52396;SDS011;38322;53.108;6.308;2022-08-01T05:10:31;19.52;;;2.92;;
52396;SDS011;38322;53.108;6.308;2022-08-01T05:12:57;14.52;;;3.97;;
52396;SDS011;38322;53.108;6.308;2022-08-01T05:15:22;17.75;;;5.43;;
52396;SDS011;38322;53.108;6.308;2022-08-01T05:17:48;12.00;;;3.08;;
52396;SDS011;38322;53.108;6.308;2022-08-01T05:20:14;11.75;;;3.25;;
52396;SDS011;38322;53.108;6.308;2022-08-01T05:22:40;17.23;;;4.05;;
52396;SDS011;38322;53.108;6.308;2022-08-01T05:25:06;13.65;;;3.92;;
52396;SDS011;38322;53.108;6.308;2022-08-01T05:27:32;13.32;;;2.85;;
52396;SDS011;38322;53.108;6.308;2022-08-01T05:30:02;11.98;;;3.45;;
52396;SDS011;38322;53.108;6.308;2022-08-01T05:32:29;18.45;;;3.30;;
52396;SDS011;38322;53.108;6.308;2022-08-01T05:34:55;18.50;;;3.83;;
52396;SDS011;38322;53.108;6.308;2022-08-01T05:37:21;26.90;;;5.57;;
52396;SDS011;38322;53.108;6.308;2022-08-01T05:39:46;13.75;;;3.13;;
52396;SDS011;38322;53.108;6.308;2022-08-01T05:42:12;12.15;;;3.00;;
52396;SDS011;38322;53.108;6.308;2022-08-01T05:44:38;11.88;;;1.88;;
52396;SDS011;38322;53.108;6.308;2022-08-01T05:47:04;14.73;;;3.20;;
52396;SDS011;38322;53.108;6.308;2022-08-01T05:49:30;19.60;;;2.30;;
52396;SDS011;38322;53.108;6.308;2022-08-01T05:51:55;8.70;;;2.70;;
52396;SDS011;38322;53.108;6.308;2022-08-01T05:54:21;14.52;;;2.92;;
52396;SDS011;38322;53.108;6.308;2022-08-01T05:56:47;12.80;;;3.67;;
52396;SDS011;38322;53.108;6.308;2022-08-01T05:59:13;13.88;;;3.13;;
52396;SDS011;38322;53.108;6.308;2022-08-01T06:01:39;15.38;;;3.28;;
52396;SDS011;38322;53.108;6.308;2022-08-01T06:04:04;11.27;;;3.17;;
52396;SDS011;38322;53.108;6.308;2022-08-01T06:06:30;18.63;;;4.55;;
52396;SDS011;38322;53.108;6.308;2022-08-01T06:08:56;9.30;;;2.60;;
52396;SDS011;38322;53.108;6.308;2022-08-01T06:11:22;13.40;;;2.97;;
52396;SDS011;38322;53.108;6.308;2022-08-01T06:13:48;15.73;;;3.58;;
52396;SDS011;38322;53.108;6.308;2022-08-01T06:16:13;12.68;;;3.33;;
52396;SDS011;38322;53.108;6.308;2022-08-01T06:18:40;16.58;;;3.30;;
52396;SDS011;38322;53.108;6.308;2022-08-01T06:21:06;18.80;;;2.67;;
52396;SDS011;38322;53.108;6.308;2022-08-01T06:23:31;14.55;;;3.42;;
52396;SDS011;38322;53.108;6.308;2022-08-01T06:25:57;11.65;;;3.60;;
52396;SDS011;38322;53.108;6.308;2022-08-01T06:28:23;13.48;;;2.95;;
52396;SDS011;38322;53.108;6.308;2022-08-01T06:30:49;17.73;;;4.10;;
52396;SDS011;38322;53.108;6.308;2022-08-01T06:33:15;25.42;;;4.53;;
52396;SDS011;38322;53.108;6.308;2022-08-01T06:35:41;18.90;;;4.15;;
52396;SDS011;38322;53.108;6.308;2022-08-01T06:38:07;16.60;;;3.47;;
52396;SDS011;38322;53.108;6.308;2022-08-01T06:40:33;15.10;;;3.22;;
52396;SDS011;38322;53.108;6.308;2022-08-01T06:42:59;16.35;;;3.58;;
52396;SDS011;38322;53.108;6.308;2022-08-01T06:45:24;13.70;;;2.90;;
52396;SDS011;38322;53.108;6.308;2022-08-01T06:47:52;15.88;;;3.35;;
52396;SDS011;38322;53.108;6.308;2022-08-01T06:50:18;11.35;;;2.47;;
52396;SDS011;38322;53.108;6.308;2022-08-01T06:52:44;13.73;;;2.95;;
52396;SDS011;38322;53.108;6.308;2022-08-01T06:55:10;12.38;;;2.88;;
52396;SDS011;38322;53.108;6.308;2022-08-01T06:57:36;11.93;;;2.55;;
52396;SDS011;38322;53.108;6.308;2022-08-01T07:00:04;19.60;;;2.40;;
52396;SDS011;38322;53.108;6.308;2022-08-01T07:02:36;12.02;;;3.00;;
52396;SDS011;38322;53.108;6.308;2022-08-01T07:05:02;16.23;;;2.60;;
52396;SDS011;38322;53.108;6.308;2022-08-01T07:07:29;16.17;;;2.58;;
52396;SDS011;38322;53.108;6.308;2022-08-01T07:09:55;13.38;;;2.55;;
52396;SDS011;38322;53.108;6.308;2022-08-01T07:12:21;15.00;;;2.40;;
52396;SDS011;38322;53.108;6.308;2022-08-01T07:14:47;11.35;;;2.92;;
52396;SDS011;38322;53.108;6.308;2022-08-01T07:17:13;12.93;;;1.95;;
52396;SDS011;38322;53.108;6.308;2022-08-01T07:19:38;16.38;;;2.17;;
52396;SDS011;38322;53.108;6.308;2022-08-01T07:22:04;12.07;;;2.38;;
52396;SDS011;38322;53.108;6.308;2022-08-01T07:24:30;12.02;;;2.05;;
52396;SDS011;38322;53.108;6.308;2022-08-01T07:26:56;16.95;;;2.50;;
52396;SDS011;38322;53.108;6.308;2022-08-01T07:29:25;12.75;;;2.40;;
52396;SDS011;38322;53.108;6.308;2022-08-01T07:31:52;8.20;;;1.40;;
52396;SDS011;38322;53.108;6.308;2022-08-01T07:34:18;12.98;;;2.00;;
52396;SDS011;38322;53.108;6.308;2022-08-01T07:36:44;9.68;;;2.00;;
52396;SDS011;38322;53.108;6.308;2022-08-01T07:39:10;20.23;;;2.95;;
52396;SDS011;38322;53.108;6.308;2022-08-01T07:41:36;10.00;;;2.03;;
52396;SDS011;38322;53.108;6.308;2022-08-01T07:44:02;12.73;;;2.40;;
52396;SDS011;38322;53.108;6.308;2022-08-01T07:46:28;15.45;;;2.70;;
52396;SDS011;38322;53.108;6.308;2022-08-01T07:48:55;12.73;;;2.45;;
52396;SDS011;38322;53.108;6.308;2022-08-01T07:51:21;13.07;;;3.70;;
52396;SDS011;38322;53.108;6.308;2022-08-01T07:53:47;8.80;;;2.08;;
52396;SDS011;38322;53.108;6.308;2022-08-01T07:56:13;12.05;;;2.97;;
52396;SDS011;38322;53.108;6.308;2022-08-01T07:58:39;14.43;;;2.78;;
52396;SDS011;38322;53.108;6.308;2022-08-01T08:01:05;12.00;;;2.50;;
52396;SDS011;38322;53.108;6.308;2022-08-01T08:03:31;9.10;;;2.13;;
52396;SDS011;38322;53.108;6.308;2022-08-01T08:05:57;10.77;;;1.73;;
52396;SDS011;38322;53.108;6.308;2022-08-01T08:08:23;14.95;;;2.10;;
52396;SDS011;38322;53.108;6.308;2022-08-01T08:10:49;11.07;;;2.10;;
52396;SDS011;38322;53.108;6.308;2022-08-01T08:13:15;14.57;;;2.05;;
52396;SDS011;38322;53.108;6.308;2022-08-01T08:15:40;8.52;;;1.40;;
52396;SDS011;38322;53.108;6.308;2022-08-01T08:18:06;10.05;;;2.13;;
52396;SDS011;38322;53.108;6.308;2022-08-01T08:20:32;11.23;;;1.95;;
52396;SDS011;38322;53.108;6.308;2022-08-01T08:22:59;9.68;;;1.85;;
52396;SDS011;38322;53.108;6.308;2022-08-01T08:25:25;17.48;;;3.00;;
52396;SDS011;38322;53.108;6.308;2022-08-01T08:27:52;12.57;;;1.80;;
52396;SDS011;38322;53.108;6.308;2022-08-01T08:30:18;13.43;;;1.33;;
52396;SDS011;38322;53.108;6.308;2022-08-01T08:32:44;10.07;;;1.45;;
52396;SDS011;38322;53.108;6.308;2022-08-01T08:35:10;6.75;;;1.77;;
52396;SDS011;38322;53.108;6.308;2022-08-01T08:37:36;10.07;;;1.42;;
52396;SDS011;38322;53.108;6.308;2022-08-01T08:40:03;6.72;;;1.02;;
52396;SDS011;38322;53.108;6.308;2022-08-01T08:42:30;10.93;;;2.83;;
52396;SDS011;38322;53.108;6.308;2022-08-01T08:44:56;11.80;;;2.22;;
52396;SDS011;38322;53.108;6.308;2022-08-01T08:47:22;17.45;;;2.70;;
52396;SDS011;38322;53.108;6.308;2022-08-01T08:49:53;5.72;;;1.55;;
52396;SDS011;38322;53.108;6.308;2022-08-01T08:52:20;12.77;;;1.38;;
52396;SDS011;38322;53.108;6.308;2022-08-01T08:54:47;6.82;;;1.15;;
52396;SDS011;38322;53.108;6.308;2022-08-01T08:57:15;10.55;;;1.48;;
52396;SDS011;38322;53.108;6.308;2022-08-01T08:59:43;5.28;;;1.33;;
52396;SDS011;38322;53.108;6.308;2022-08-01T09:02:10;7.85;;;1.00;;
52396;SDS011;38322;53.108;6.308;2022-08-01T09:04:37;8.00;;;1.23;;
52396;SDS011;38322;53.108;6.308;2022-08-01T09:07:05;8.75;;;1.38;;
52396;SDS011;38322;53.108;6.308;2022-08-01T09:09:31;6.18;;;0.80;;
52396;SDS011;38322;53.108;6.308;2022-08-01T09:11:58;8.73;;;1.33;;
52396;SDS011;38322;53.108;6.308;2022-08-01T09:14:24;8.25;;;1.55;;
52396;SDS011;38322;53.108;6.308;2022-08-01T09:17:04;6.75;;;1.05;;
52396;SDS011;38322;53.108;6.308;2022-08-01T09:22:12;10.10;;;1.73;;
52396;SDS011;38322;53.108;6.308;2022-08-01T09:24:56;8.95;;;1.02;;
52396;SDS011;38322;53.108;6.308;2022-08-01T09:27:30;9.57;;;1.45;;
52396;SDS011;38322;53.108;6.308;2022-08-01T09:30:06;5.38;;;1.25;;
52396;SDS011;38322;53.108;6.308;2022-08-01T09:32:51;8.27;;;1.10;;
52396;SDS011;38322;53.108;6.308;2022-08-01T09:35:23;9.60;;;2.42;;
52396;SDS011;38322;53.108;6.308;2022-08-01T09:40:59;5.28;;;1.33;;
52396;SDS011;38322;53.108;6.308;2022-08-01T09:43:28;18.65;;;1.75;;
52396;SDS011;38322;53.108;6.308;2022-08-01T09:45:56;5.80;;;1.95;;
52396;SDS011;38322;53.108;6.308;2022-08-01T09:48:22;7.75;;;1.15;;
52396;SDS011;38322;53.108;6.308;2022-08-01T09:50:49;5.80;;;1.40;;
52396;SDS011;38322;53.108;6.308;2022-08-01T09:53:16;4.32;;;1.05;;
52396;SDS011;38322;53.108;6.308;2022-08-01T09:55:42;7.00;;;1.23;;
52396;SDS011;38322;53.108;6.308;2022-08-01T09:58:09;6.93;;;0.85;;
52396;SDS011;38322;53.108;6.308;2022-08-01T10:00:37;6.03;;;0.93;;
52396;SDS011;38322;53.108;6.308;2022-08-01T10:03:23;9.25;;;1.35;;
52396;SDS011;38322;53.108;6.308;2022-08-01T10:05:51;6.15;;;1.17;;
52396;SDS011;38322;53.108;6.308;2022-08-01T10:08:22;7.50;;;2.28;;
52396;SDS011;38322;53.108;6.308;2022-08-01T10:11:10;7.95;;;1.25;;
52396;SDS011;38322;53.108;6.308;2022-08-01T10:13:37;5.90;;;1.50;;
52396;SDS011;38322;53.108;6.308;2022-08-01T10:16:03;12.73;;;1.92;;
52396;SDS011;38322;53.108;6.308;2022-08-01T10:18:32;8.73;;;0.75;;
52396;SDS011;38322;53.108;6.308;2022-08-01T10:20:59;10.38;;;2.13;;
52396;SDS011;38322;53.108;6.308;2022-08-01T10:23:26;8.35;;;0.90;;
52396;SDS011;38322;53.108;6.308;2022-08-01T10:25:55;14.10;;;1.33;;
52396;SDS011;38322;53.108;6.308;2022-08-01T10:28:23;4.47;;;1.10;;
52396;SDS011;38322;53.108;6.308;2022-08-01T10:30:51;9.98;;;1.45;;
52396;SDS011;38322;53.108;6.308;2022-08-01T10:33:17;6.03;;;0.88;;
52396;SDS011;38322;53.108;6.308;2022-08-01T10:35:45;8.73;;;1.67;;
52396;SDS011;38322;53.108;6.308;2022-08-01T10:38:11;6.28;;;0.85;;
52396;SDS011;38322;53.108;6.308;2022-08-01T10:40:37;8.38;;;1.13;;
52396;SDS011;38322;53.108;6.308;2022-08-01T10:43:06;6.32;;;0.80;;
52396;SDS011;38322;53.108;6.308;2022-08-01T10:45:32;7.47;;;1.35;;
52396;SDS011;38322;53.108;6.308;2022-08-01T10:50:55;7.45;;;0.90;;
52396;SDS011;38322;53.108;6.308;2022-08-01T10:53:26;4.97;;;0.82;;
52396;SDS011;38322;53.108;6.308;2022-08-01T11:03:39;6.65;;;1.15;;
52396;SDS011;38322;53.108;6.308;2022-08-01T11:06:20;5.03;;;1.23;;
52396;SDS011;38322;53.108;6.308;2022-08-01T11:09:04;4.63;;;0.85;;
52396;SDS011;38322;53.108;6.308;2022-08-01T11:11:59;8.15;;;0.73;;
52396;SDS011;38322;53.108;6.308;2022-08-01T11:14:30;3.13;;;0.57;;
52396;SDS011;38322;53.108;6.308;2022-08-01T11:16:56;6.70;;;0.82;;
52396;SDS011;38322;53.108;6.308;2022-08-01T11:22:40;3.78;;;0.30;;
52396;SDS011;38322;53.108;6.308;2022-08-01T11:25:24;4.47;;;0.60;;
52396;SDS011;38322;53.108;6.308;2022-08-01T11:30:39;4.50;;;0.75;;
52396;SDS011;38322;53.108;6.308;2022-08-01T11:33:06;6.00;;;0.52;;
52396;SDS011;38322;53.108;6.308;2022-08-01T11:35:32;7.30;;;0.70;;
52396;SDS011;38322;53.108;6.308;2022-08-01T11:38:22;4.90;;;0.95;;
52396;SDS011;38322;53.108;6.308;2022-08-01T11:43:56;4.10;;;0.88;;
52396;SDS011;38322;53.108;6.308;2022-08-01T11:49:25;6.25;;;1.30;;
52396;SDS011;38322;53.108;6.308;2022-08-01T11:52:06;6.32;;;0.52;;
52396;SDS011;38322;53.108;6.308;2022-08-01T11:57:10;6.47;;;0.80;;
52396;SDS011;38322;53.108;6.308;2022-08-01T11:59:42;4.53;;;0.73;;
52396;SDS011;38322;53.108;6.308;2022-08-01T12:02:17;4.45;;;1.15;;
52396;SDS011;38322;53.108;6.308;2022-08-01T12:04:45;4.95;;;0.77;;
52396;SDS011;38322;53.108;6.308;2022-08-01T12:07:18;5.63;;;0.38;;
52396;SDS011;38322;53.108;6.308;2022-08-01T12:09:45;5.30;;;0.63;;
52396;SDS011;38322;53.108;6.308;2022-08-01T12:12:14;9.98;;;1.75;;
52396;SDS011;38322;53.108;6.308;2022-08-01T12:14:42;4.07;;;0.50;;
52396;SDS011;38322;53.108;6.308;2022-08-01T12:17:08;5.70;;;0.57;;
52396;SDS011;38322;53.108;6.308;2022-08-01T12:19:34;4.22;;;0.63;;
52396;SDS011;38322;53.108;6.308;2022-08-01T12:22:05;4.97;;;0.60;;
52396;SDS011;38322;53.108;6.308;2022-08-01T12:24:32;6.72;;;0.60;;
52396;SDS011;38322;53.108;6.308;2022-08-01T12:26:59;2.13;;;1.23;;
52396;SDS011;38322;53.108;6.308;2022-08-01T12:29:35;6.13;;;0.52;;
52396;SDS011;38322;53.108;6.308;2022-08-01T12:32:03;6.03;;;0.60;;
52396;SDS011;38322;53.108;6.308;2022-08-01T12:34:29;3.20;;;0.55;;
52396;SDS011;38322;53.108;6.308;2022-08-01T12:36:59;7.13;;;0.98;;
52396;SDS011;38322;53.108;6.308;2022-08-01T12:39:31;4.05;;;0.50;;
52396;SDS011;38322;53.108;6.308;2022-08-01T12:41:58;2.90;;;0.40;;
52396;SDS011;38322;53.108;6.308;2022-08-01T12:44:24;6.15;;;0.40;;
52396;SDS011;38322;53.108;6.308;2022-08-01T12:46:53;3.25;;;0.80;;
52396;SDS011;38322;53.108;6.308;2022-08-01T12:49:20;8.40;;;0.60;;
52396;SDS011;38322;53.108;6.308;2022-08-01T12:51:46;2.17;;;0.63;;
52396;SDS011;38322;53.108;6.308;2022-08-01T12:54:12;3.20;;;0.80;;
52396;SDS011;38322;53.108;6.308;2022-08-01T12:56:38;5.82;;;1.50;;
52396;SDS011;38322;53.108;6.308;2022-08-01T12:59:22;5.13;;;1.08;;
52396;SDS011;38322;53.108;6.308;2022-08-01T13:01:51;2.92;;;0.50;;
52396;SDS011;38322;53.108;6.308;2022-08-01T13:04:18;4.63;;;1.25;;
52396;SDS011;38322;53.108;6.308;2022-08-01T13:06:45;5.13;;;0.43;;
52396;SDS011;38322;53.108;6.308;2022-08-01T13:09:12;3.67;;;0.57;;
52396;SDS011;38322;53.108;6.308;2022-08-01T13:11:39;8.30;;;2.00;;
52396;SDS011;38322;53.108;6.308;2022-08-01T13:14:06;5.18;;;1.25;;
52396;SDS011;38322;53.108;6.308;2022-08-01T13:16:32;2.20;;;0.47;;
52396;SDS011;38322;53.108;6.308;2022-08-01T13:19:09;5.85;;;1.00;;
52396;SDS011;38322;53.108;6.308;2022-08-01T13:21:35;7.25;;;0.45;;
52396;SDS011;38322;53.108;6.308;2022-08-01T13:24:09;4.40;;;0.90;;
52396;SDS011;38322;53.108;6.308;2022-08-01T13:29:07;2.67;;;0.70;;
52396;SDS011;38322;53.108;6.308;2022-08-01T13:31:35;5.82;;;0.55;;
52396;SDS011;38322;53.108;6.308;2022-08-01T13:34:02;4.60;;;0.80;;
52396;SDS011;38322;53.108;6.308;2022-08-01T13:36:29;5.50;;;2.08;;
52396;SDS011;38322;53.108;6.308;2022-08-01T13:38:56;5.55;;;0.52;;
52396;SDS011;38322;53.108;6.308;2022-08-01T13:41:41;7.10;;;0.65;;
52396;SDS011;38322;53.108;6.308;2022-08-01T13:44:08;4.28;;;0.50;;
52396;SDS011;38322;53.108;6.308;2022-08-01T13:46:36;2.33;;;0.90;;
52396;SDS011;38322;53.108;6.308;2022-08-01T13:49:03;5.93;;;0.77;;
52396;SDS011;38322;53.108;6.308;2022-08-01T13:51:31;8.05;;;0.75;;
52396;SDS011;38322;53.108;6.308;2022-08-01T13:53:57;5.55;;;0.57;;
52396;SDS011;38322;53.108;6.308;2022-08-01T13:56:23;4.78;;;1.60;;
52396;SDS011;38322;53.108;6.308;2022-08-01T13:58:50;4.72;;;0.43;;
52396;SDS011;38322;53.108;6.308;2022-08-01T14:01:16;6.38;;;1.50;;
52396;SDS011;38322;53.108;6.308;2022-08-01T14:03:42;3.80;;;0.60;;
52396;SDS011;38322;53.108;6.308;2022-08-01T14:06:08;5.93;;;0.45;;
52396;SDS011;38322;53.108;6.308;2022-08-01T14:08:33;3.97;;;0.47;;
52396;SDS011;38322;53.108;6.308;2022-08-01T14:10:59;2.15;;;0.30;;
52396;SDS011;38322;53.108;6.308;2022-08-01T14:13:25;7.32;;;0.70;;
52396;SDS011;38322;53.108;6.308;2022-08-01T14:15:51;5.40;;;0.65;;
52396;SDS011;38322;53.108;6.308;2022-08-01T14:18:17;7.53;;;0.43;;
52396;SDS011;38322;53.108;6.308;2022-08-01T14:20:44;3.78;;;0.88;;
52396;SDS011;38322;53.108;6.308;2022-08-01T14:23:09;4.43;;;0.65;;
52396;SDS011;38322;53.108;6.308;2022-08-01T14:25:36;5.00;;;0.40;;
52396;SDS011;38322;53.108;6.308;2022-08-01T14:28:03;3.92;;;0.50;;
52396;SDS011;38322;53.108;6.308;2022-08-01T14:30:29;1.45;;;0.40;;
52396;SDS011;38322;53.108;6.308;2022-08-01T14:32:56;3.17;;;0.30;;
52396;SDS011;38322;53.108;6.308;2022-08-01T14:35:22;3.55;;;0.82;;
52396;SDS011;38322;53.108;6.308;2022-08-01T14:37:48;8.25;;;0.88;;
52396;SDS011;38322;53.108;6.308;2022-08-01T14:40:13;3.53;;;0.70;;
52396;SDS011;38322;53.108;6.308;2022-08-01T14:42:39;4.85;;;0.65;;
52396;SDS011;38322;53.108;6.308;2022-08-01T14:45:06;2.30;;;0.32;;
52396;SDS011;38322;53.108;6.308;2022-08-01T14:47:34;7.25;;;0.80;;
52396;SDS011;38322;53.108;6.308;2022-08-01T14:50:02;3.35;;;0.77;;
52396;SDS011;38322;53.108;6.308;2022-08-01T14:52:29;8.20;;;0.70;;
52396;SDS011;38322;53.108;6.308;2022-08-01T14:54:55;1.88;;;0.57;;
52396;SDS011;38322;53.108;6.308;2022-08-01T14:57:21;3.75;;;0.43;;
52396;SDS011;38322;53.108;6.308;2022-08-01T14:59:47;4.00;;;0.65;;
52396;SDS011;38322;53.108;6.308;2022-08-01T15:02:13;5.22;;;0.43;;
52396;SDS011;38322;53.108;6.308;2022-08-01T15:04:42;3.03;;;0.50;;
52396;SDS011;38322;53.108;6.308;2022-08-01T15:07:09;6.60;;;1.02;;
52396;SDS011;38322;53.108;6.308;2022-08-01T15:09:36;4.07;;;0.40;;
52396;SDS011;38322;53.108;6.308;2022-08-01T15:12:02;4.05;;;0.50;;
52396;SDS011;38322;53.108;6.308;2022-08-01T15:14:28;5.15;;;0.80;;
52396;SDS011;38322;53.108;6.308;2022-08-01T15:17:14;6.18;;;0.60;;
52396;SDS011;38322;53.108;6.308;2022-08-01T15:19:41;4.93;;;0.70;;
52396;SDS011;38322;53.108;6.308;2022-08-01T15:22:07;9.07;;;1.10;;
52396;SDS011;38322;53.108;6.308;2022-08-01T15:24:33;5.57;;;1.23;;
52396;SDS011;38322;53.108;6.308;2022-08-01T15:26:59;4.57;;;0.95;;
52396;SDS011;38322;53.108;6.308;2022-08-01T15:29:24;10.02;;;1.00;;
52396;SDS011;38322;53.108;6.308;2022-08-01T15:31:51;5.93;;;1.13;;
52396;SDS011;38322;53.108;6.308;2022-08-01T15:34:17;8.07;;;0.68;;
52396;SDS011;38322;53.108;6.308;2022-08-01T15:36:42;4.00;;;0.55;;
52396;SDS011;38322;53.108;6.308;2022-08-01T15:39:09;4.70;;;0.73;;
52396;SDS011;38322;53.108;6.308;2022-08-01T15:41:35;4.25;;;1.15;;
52396;SDS011;38322;53.108;6.308;2022-08-01T15:44:01;6.10;;;1.13;;
52396;SDS011;38322;53.108;6.308;2022-08-01T15:46:28;2.78;;;0.60;;
52396;SDS011;38322;53.108;6.308;2022-08-01T15:48:53;2.65;;;0.55;;
52396;SDS011;38322;53.108;6.308;2022-08-01T15:51:19;7.75;;;1.13;;
52396;SDS011;38322;53.108;6.308;2022-08-01T15:53:45;2.92;;;0.65;;
52396;SDS011;38322;53.108;6.308;2022-08-01T15:56:12;5.75;;;1.77;;
52396;SDS011;38322;53.108;6.308;2022-08-01T15:58:38;3.08;;;1.17;;
52396;SDS011;38322;53.108;6.308;2022-08-01T16:01:04;6.13;;;0.77;;
52396;SDS011;38322;53.108;6.308;2022-08-01T16:03:30;4.78;;;0.50;;
52396;SDS011;38322;53.108;6.308;2022-08-01T16:05:56;3.88;;;0.50;;
52396;SDS011;38322;53.108;6.308;2022-08-01T16:08:22;3.53;;;0.57;;
52396;SDS011;38322;53.108;6.308;2022-08-01T16:10:48;3.63;;;0.85;;
52396;SDS011;38322;53.108;6.308;2022-08-01T16:13:14;5.90;;;0.73;;
52396;SDS011;38322;53.108;6.308;2022-08-01T16:15:41;4.45;;;0.52;;
52396;SDS011;38322;53.108;6.308;2022-08-01T16:18:08;4.00;;;0.52;;
52396;SDS011;38322;53.108;6.308;2022-08-01T16:20:37;7.07;;;1.30;;
52396;SDS011;38322;53.108;6.308;2022-08-01T16:23:03;4.70;;;0.80;;
52396;SDS011;38322;53.108;6.308;2022-08-01T16:25:29;4.03;;;0.50;;
52396;SDS011;38322;53.108;6.308;2022-08-01T16:27:55;2.63;;;0.93;;
52396;SDS011;38322;53.108;6.308;2022-08-01T16:30:21;6.05;;;0.40;;
52396;SDS011;38322;53.108;6.308;2022-08-01T16:32:47;5.95;;;0.85;;
52396;SDS011;38322;53.108;6.308;2022-08-01T16:35:12;5.13;;;0.88;;
52396;SDS011;38322;53.108;6.308;2022-08-01T16:37:38;3.47;;;0.60;;
52396;SDS011;38322;53.108;6.308;2022-08-01T16:40:05;4.05;;;0.52;;
52396;SDS011;38322;53.108;6.308;2022-08-01T16:42:31;5.13;;;1.13;;
52396;SDS011;38322;53.108;6.308;2022-08-01T16:44:57;4.57;;;0.55;;
52396;SDS011;38322;53.108;6.308;2022-08-01T16:47:23;5.90;;;0.45;;
52396;SDS011;38322;53.108;6.308;2022-08-01T16:49:49;6.60;;;0.82;;
52396;SDS011;38322;53.108;6.308;2022-08-01T16:52:15;3.65;;;0.98;;
52396;SDS011;38322;53.108;6.308;2022-08-01T16:54:41;4.38;;;0.50;;
52396;SDS011;38322;53.108;6.308;2022-08-01T16:57:07;6.25;;;0.50;;
52396;SDS011;38322;53.108;6.308;2022-08-01T16:59:33;5.53;;;0.80;;
52396;SDS011;38322;53.108;6.308;2022-08-01T17:01:59;8.95;;;1.00;;
52396;SDS011;38322;53.108;6.308;2022-08-01T17:04:25;3.70;;;0.75;;
52396;SDS011;38322;53.108;6.308;2022-08-01T17:06:51;3.83;;;0.95;;
52396;SDS011;38322;53.108;6.308;2022-08-01T17:09:17;3.50;;;0.88;;
52396;SDS011;38322;53.108;6.308;2022-08-01T17:11:43;3.70;;;0.63;;
52396;SDS011;38322;53.108;6.308;2022-08-01T17:14:09;4.05;;;1.13;;
52396;SDS011;38322;53.108;6.308;2022-08-01T17:16:35;3.42;;;0.28;;
52396;SDS011;38322;53.108;6.308;2022-08-01T17:19:01;5.80;;;0.32;;
52396;SDS011;38322;53.108;6.308;2022-08-01T17:21:27;2.97;;;0.47;;
52396;SDS011;38322;53.108;6.308;2022-08-01T17:23:53;3.78;;;1.38;;
52396;SDS011;38322;53.108;6.308;2022-08-01T17:26:19;3.55;;;0.63;;
52396;SDS011;38322;53.108;6.308;2022-08-01T17:28:45;4.88;;;0.60;;
52396;SDS011;38322;53.108;6.308;2022-08-01T17:31:11;2.03;;;0.30;;
52396;SDS011;38322;53.108;6.308;2022-08-01T17:33:37;4.43;;;0.32;;
52396;SDS011;38322;53.108;6.308;2022-08-01T17:36:05;3.97;;;0.63;;
52396;SDS011;38322;53.108;6.308;2022-08-01T17:38:31;5.95;;;0.50;;
52396;SDS011;38322;53.108;6.308;2022-08-01T17:40:57;4.90;;;1.00;;
52396;SDS011;38322;53.108;6.308;2022-08-01T17:43:23;4.03;;;0.60;;
52396;SDS011;38322;53.108;6.308;2022-08-01T17:45:49;8.95;;;1.27;;
52396;SDS011;38322;53.108;6.308;2022-08-01T17:48:18;3.38;;;0.57;;
52396;SDS011;38322;53.108;6.308;2022-08-01T17:50:45;4.35;;;0.73;;
52396;SDS011;38322;53.108;6.308;2022-08-01T17:53:13;9.43;;;0.47;;
52396;SDS011;38322;53.108;6.308;2022-08-01T17:55:40;2.88;;;0.57;;
52396;SDS011;38322;53.108;6.308;2022-08-01T17:58:07;5.00;;;1.00;;
52396;SDS011;38322;53.108;6.308;2022-08-01T18:00:34;9.40;;;0.73;;
52396;SDS011;38322;53.108;6.308;2022-08-01T18:03:03;6.57;;;1.30;;
52396;SDS011;38322;53.108;6.308;2022-08-01T18:05:30;4.93;;;0.70;;
52396;SDS011;38322;53.108;6.308;2022-08-01T18:07:57;9.50;;;1.08;;
52396;SDS011;38322;53.108;6.308;2022-08-01T18:10:24;5.13;;;1.50;;
52396;SDS011;38322;53.108;6.308;2022-08-01T18:12:50;5.75;;;1.08;;
52396;SDS011;38322;53.108;6.308;2022-08-01T18:15:16;5.22;;;1.20;;
52396;SDS011;38322;53.108;6.308;2022-08-01T18:17:42;5.97;;;1.50;;
52396;SDS011;38322;53.108;6.308;2022-08-01T18:20:08;7.07;;;1.00;;
52396;SDS011;38322;53.108;6.308;2022-08-01T18:22:35;3.95;;;0.68;;
52396;SDS011;38322;53.108;6.308;2022-08-01T18:25:01;5.63;;;0.80;;
52396;SDS011;38322;53.108;6.308;2022-08-01T18:27:29;6.05;;;1.00;;
52396;SDS011;38322;53.108;6.308;2022-08-01T18:29:55;2.22;;;0.65;;
52396;SDS011;38322;53.108;6.308;2022-08-01T18:32:21;1.73;;;0.50;;
52396;SDS011;38322;53.108;6.308;2022-08-01T18:34:47;9.85;;;1.05;;
52396;SDS011;38322;53.108;6.308;2022-08-01T18:37:13;5.55;;;0.82;;
52396;SDS011;38322;53.108;6.308;2022-08-01T18:39:41;6.07;;;1.00;;
52396;SDS011;38322;53.108;6.308;2022-08-01T18:42:07;9.48;;;1.17;;
52396;SDS011;38322;53.108;6.308;2022-08-01T18:44:33;5.97;;;1.27;;
52396;SDS011;38322;53.108;6.308;2022-08-01T18:47:01;5.10;;;0.80;;
52396;SDS011;38322;53.108;6.308;2022-08-01T18:49:27;5.60;;;1.83;;
52396;SDS011;38322;53.108;6.308;2022-08-01T18:51:53;3.17;;;0.70;;
52396;SDS011;38322;53.108;6.308;2022-08-01T18:54:19;5.68;;;0.90;;
52396;SDS011;38322;53.108;6.308;2022-08-01T18:56:47;7.82;;;1.40;;
52396;SDS011;38322;53.108;6.308;2022-08-01T18:59:12;5.68;;;0.85;;
52396;SDS011;38322;53.108;6.308;2022-08-01T19:01:38;5.53;;;1.02;;
52396;SDS011;38322;53.108;6.308;2022-08-01T19:04:04;6.15;;;0.85;;
52396;SDS011;38322;53.108;6.308;2022-08-01T19:06:31;3.03;;;1.02;;
52396;SDS011;38322;53.108;6.308;2022-08-01T19:08:57;6.25;;;1.00;;
52396;SDS011;38322;53.108;6.308;2022-08-01T19:11:25;4.70;;;0.98;;
52396;SDS011;38322;53.108;6.308;2022-08-01T19:13:51;8.02;;;0.85;;
52396;SDS011;38322;53.108;6.308;2022-08-01T19:16:18;4.80;;;1.02;;
52396;SDS011;38322;53.108;6.308;2022-08-01T19:18:44;3.50;;;0.98;;
52396;SDS011;38322;53.108;6.308;2022-08-01T19:21:10;7.00;;;0.93;;
52396;SDS011;38322;53.108;6.308;2022-08-01T19:23:36;3.85;;;1.30;;
52396;SDS011;38322;53.108;6.308;2022-08-01T19:26:21;6.15;;;1.20;;
52396;SDS011;38322;53.108;6.308;2022-08-01T19:28:51;4.10;;;1.48;;
52396;SDS011;38322;53.108;6.308;2022-08-01T19:31:23;8.43;;;1.70;;
52396;SDS011;38322;53.108;6.308;2022-08-01T19:33:53;3.58;;;0.95;;
52396;SDS011;38322;53.108;6.308;2022-08-01T19:36:22;5.03;;;0.85;;
52396;SDS011;38322;53.108;6.308;2022-08-01T19:38:49;2.40;;;1.05;;
52396;SDS011;38322;53.108;6.308;2022-08-01T19:41:15;9.90;;;0.95;;
52396;SDS011;38322;53.108;6.308;2022-08-01T19:43:42;3.38;;;0.70;;
52396;SDS011;38322;53.108;6.308;2022-08-01T19:46:09;6.30;;;1.00;;
52396;SDS011;38322;53.108;6.308;2022-08-01T19:48:35;9.95;;;1.65;;
52396;SDS011;38322;53.108;6.308;2022-08-01T19:51:02;6.78;;;1.20;;
52396;SDS011;38322;53.108;6.308;2022-08-01T19:53:34;6.25;;;1.83;;
52396;SDS011;38322;53.108;6.308;2022-08-01T19:56:02;5.75;;;1.35;;
52396;SDS011;38322;53.108;6.308;2022-08-01T19:58:31;3.88;;;1.25;;
